Time;durP1;ratioP1;P1;durP2;ratioP2;P2;SDS_P1;SDS_P2;PMS_P1;PMS_P2;Temp;Humidity;BMP_temperature;BMP_pressure;BME280_temperature;BME280_humidity;BME280_pressure;Samples;Min_cycle;Max_cycle;Signal;HPM_P1;HPM_P2
2022/08/13 00:01:37;;;;;;;29.52;27.15;;;;;;;22.53;72.93;100554.53;4990909;28;103161;-57
2022/08/13 00:04:04;;;;;;;28.20;25.85;;;;;;;22.52;72.94;100552.94;4997023;28;102372;-57
2022/08/13 00:09:04;;;;;;;31.30;28.92;;;;;;;22.52;72.93;100550.16;4997173;28;103955;-57
2022/08/13 00:14:22;;;;;;;26.90;24.52;;;;;;;22.52;73.07;100550.16;4979364;28;102280;-57
2022/08/13 00:16:49;;;;;;;28.33;25.98;;;;;;;22.52;72.96;100550.16;4998173;28;102715;-57
2022/08/13 00:19:17;;;;;;;26.23;24.20;;;;;;;22.52;72.96;100550.16;4995707;28;103922;-57
2022/08/13 00:21:44;;;;;;;30.20;27.50;;;;;;;22.52;72.99;100550.16;4998315;28;102122;-57
2022/08/13 00:24:10;;;;;;;29.42;27.05;;;;;;;22.52;72.85;100547.38;4997470;28;102384;-56
2022/08/13 00:26:37;;;;;;;29.20;26.95;;;;;;;22.51;72.96;100545.78;4989481;28;102528;-57
2022/08/13 00:29:04;;;;;;;31.17;28.77;;;;;;;22.52;73.06;100547.38;4978626;28;104010;-57
2022/08/13 00:31:32;;;;;;;28.20;26.10;;;;;;;22.52;73.04;100541.84;4991094;28;102287;-56
2022/08/13 00:33:59;;;;;;;29.48;27.25;;;;;;;22.51;73.08;100548.56;4983735;28;102259;-56
2022/08/13 00:36:35;;;;;;;30.52;28.02;;;;;;;22.51;73.07;100545.78;4999014;28;102318;-57
2022/08/13 00:39:03;;;;;;;27.20;25.10;;;;;;;22.51;72.97;100543.00;4998311;28;104183;-57
2022/08/13 00:41:38;;;;;;;;;;;;;;;22.51;73.18;100546.59;4998963;28;102129;-57
2022/08/13 00:44:07;;;;;;;24.65;22.55;;;;;;;22.51;73.05;100546.59;4998288;28;101939;-57
2022/08/13 00:46:37;;;;;;;28.23;26.02;;;;;;;22.51;73.15;100551.31;4999999;28;102078;-56
2022/08/13 00:49:05;;;;;;;27.88;25.70;;;;;;;22.51;73.02;100545.78;4983574;28;104030;-57
2022/08/13 00:51:33;;;;;;;26.00;23.80;;;;;;;22.51;73.13;100543.81;4989413;28;102408;-56
2022/08/13 00:54:02;;;;;;;27.35;25.20;;;;;;;22.51;73.11;100543.00;4991460;28;103102;-57
2022/08/13 00:56:31;;;;;;;25.90;23.83;;;;;;;22.51;73.13;100551.31;4998919;28;102022;-58
2022/08/13 00:59:00;;;;;;;24.75;22.85;;;;;;;22.51;72.80;100541.03;4977976;28;103949;-57
2022/08/13 01:01:26;;;;;;;;;;;;;;;22.51;72.96;100534.69;4991151;28;102289;-56
2022/08/13 01:03:54;;;;;;;20.80;18.98;;;;;;;22.51;72.92;100534.69;4997840;28;102548;-57
2022/08/13 01:06:23;;;;;;;23.40;21.33;;;;;;;22.51;73.01;100534.69;4999730;28;102034;-57
2022/08/13 01:08:53;;;;;;;25.70;23.77;;;;;;;22.50;73.03;100539.44;4997424;28;103907;-57
2022/08/13 01:11:21;;;;;;;24.63;22.60;;;;;;;22.51;73.08;100541.03;4997842;28;102320;-57
2022/08/13 01:13:51;;;;;;;25.17;23.08;;;;;;;22.51;73.16;100534.69;4997983;28;101913;-57
2022/08/13 01:16:19;;;;;;;25.83;23.88;;;;;;;22.51;73.16;100526.38;4998081;28;102280;-57
2022/08/13 01:18:49;;;;;;;28.73;26.60;;;;;;;22.51;72.98;100520.81;4997836;28;103924;-57
2022/08/13 01:21:19;;;;;;;27.05;24.83;;;;;;;22.51;72.98;100523.59;4997290;28;102127;-57
2022/08/13 01:23:49;;;;;;;28.02;25.73;;;;;;;22.51;73.12;100526.38;4998380;28;102188;-57
2022/08/13 01:26:18;;;;;;;26.95;24.77;;;;;;;22.51;73.12;100515.28;4998512;28;102351;-57
2022/08/13 01:28:47;;;;;;;28.02;25.83;;;;;;;22.51;73.21;100523.59;4996943;28;104136;-56
2022/08/13 01:31:15;;;;;;;27.13;24.85;;;;;;;22.50;73.12;100527.50;4992470;28;102072;-56
2022/08/13 01:33:43;;;;;;;54.00;50.50;;;;;;;22.50;73.03;100527.50;4996779;28;102861;-56
2022/08/13 01:36:10;;;;;;;53.93;50.30;;;;;;;22.50;73.03;100519.19;4998530;28;102238;-57
2022/08/13 01:38:40;;;;;;;54.22;50.67;;;;;;;22.50;73.07;100527.50;4996521;28;103867;-56
2022/08/13 01:41:08;;;;;;;;;;;;;;;22.50;73.14;100533.06;4998416;28;102092;-56
2022/08/13 01:43:38;;;;;;;41.47;38.63;;;;;;;22.51;73.02;100529.13;4996257;28;102541;-57
2022/08/13 01:46:06;;;;;;;45.58;42.38;;;;;;;22.50;73.23;100533.06;4991953;28;103782;-57
2022/08/13 01:51:22;;;;;;;50.00;46.55;;;;;;;22.50;73.28;100527.50;4997685;28;102216;-57
2022/08/13 01:53:49;;;;;;;49.30;45.97;;;;;;;22.51;73.13;100529.13;4997107;28;102421;-57
2022/08/13 01:56:21;;;;;;;50.17;46.67;;;;;;;22.50;73.21;100521.97;4997748;28;101999;-56
2022/08/13 01:58:49;;;;;;;49.42;46.20;;;;;;;22.50;73.07;100517.25;4996846;28;104294;-57
2022/08/13 02:01:17;;;;;;;47.42;44.20;;;;;;;22.51;73.20;100518.06;4996853;28;102760;-57
2022/08/13 02:03:49;;;;;;;50.95;47.65;;;;;;;22.50;73.17;100524.75;4996598;28;102098;-57
2022/08/13 02:06:21;;;;;;;45.85;42.70;;;;;;;22.50;73.04;100519.19;4998719;28;102394;-57
2022/08/13 02:08:50;;;;;;;46.42;43.33;;;;;;;22.50;73.04;100519.19;4994505;28;103978;-57
2022/08/13 02:11:17;;;;;;;;;;;;;;;22.50;73.00;100522.78;4978359;28;102211;-57
2022/08/13 02:13:45;;;;;;;38.05;35.42;;;;;;;22.50;73.27;100525.56;4977435;28;102021;-57
2022/08/13 02:16:12;;;;;;;44.35;41.30;;;;;;;22.50;72.99;100524.75;4980459;28;102919;-57
2022/08/13 02:18:38;;;;;;;45.95;42.95;;;;;;;22.49;73.11;100525.91;4996456;28;103942;-57
2022/08/13 02:21:05;;;;;;;45.95;42.85;;;;;;;22.50;73.14;100524.75;4997406;28;102167;-57
2022/08/13 02:23:33;;;;;;;49.60;46.38;;;;;;;22.49;73.20;100514.81;4996707;28;101869;-57
2022/08/13 02:26:01;;;;;;;51.00;47.80;;;;;;;22.51;72.95;100523.59;4997121;28;102307;-57
2022/08/13 02:28:30;;;;;;;48.85;45.53;;;;;;;22.50;72.99;100519.19;4996684;28;103931;-58
2022/08/13 02:30:57;;;;;;;49.38;45.95;;;;;;;22.50;73.15;100519.19;4995313;28;101980;-57
2022/08/13 02:33:25;;;;;;;46.13;43.20;;;;;;;22.49;73.05;100510.06;4996548;28;102179;-57
2022/08/13 02:35:52;;;;;;;51.93;48.17;;;;;;;22.49;73.10;100510.06;4998143;28;102158;-57
2022/08/13 02:38:18;;;;;;;46.67;43.53;;;;;;;22.49;73.13;100507.28;4996104;28;104027;-57
2022/08/13 02:43:32;;;;;;;46.75;43.63;;;;;;;22.49;73.11;100504.53;4992460;28;102163;-57
2022/08/13 02:46:00;;;;;;;49.10;45.70;;;;;;;22.50;73.15;100516.41;4997243;28;102071;-57
2022/08/13 02:48:29;;;;;;;45.22;42.03;;;;;;;22.50;73.08;100519.19;4987838;28;103806;-57
2022/08/13 02:50:57;;;;;;;27.60;25.45;;;;;;;22.49;73.23;100512.84;4990298;28;102034;-57
2022/08/13 02:53:25;;;;;;;29.80;27.50;;;;;;;22.49;73.29;100509.28;4984615;28;102152;-57
2022/08/13 02:55:52;;;;;;;29.40;27.10;;;;;;;22.49;73.13;100520.34;4996435;28;102124;-57
2022/08/13 02:58:18;;;;;;;27.42;25.33;;;;;;;22.48;73.14;100507.66;4983872;28;103840;-57
2022/08/13 03:00:49;;;;;;;31.20;29.02;;;;;;;22.48;73.17;100515.97;4995446;28;101988;-56
2022/08/13 03:03:17;;;;;;;27.77;25.67;;;;;;;22.49;73.15;100514.81;4996993;28;102410;-57
2022/08/13 03:05:43;;;;;;;30.23;27.95;;;;;;;22.49;73.28;100517.59;4997077;28;102191;-57
2022/08/13 03:08:11;;;;;;;30.80;28.50;;;;;;;22.48;73.14;100507.66;4996691;28;103957;-58
2022/08/13 03:10:40;;;;;;;28.33;25.95;;;;;;;22.49;73.23;100517.59;4994796;28;102412;-57
2022/08/13 03:13:15;;;;;;;28.27;26.17;;;;;;;22.48;73.29;100513.22;4996414;28;102212;-57
2022/08/13 03:15:43;;;;;;;27.23;25.02;;;;;;;22.48;73.16;100516.78;4997428;28;102330;-57
2022/08/13 03:18:11;;;;;;;27.90;25.70;;;;;;;22.48;73.18;100515.97;4995488;28;104128;-57
2022/08/13 03:20:38;;;;;;;;;;;;;;;22.49;73.05;100528.69;4996453;28;102034;-57
2022/08/13 03:23:07;;;;;;;23.52;21.75;;;;;;;22.48;73.14;100524.31;4995406;28;102462;-57
2022/08/13 03:25:34;;;;;;;25.13;23.10;;;;;;;22.47;73.21;100522.69;4997382;28;102535;-57
2022/08/13 03:28:02;;;;;;;26.88;24.75;;;;;;;22.49;73.35;100525.91;4986117;28;104005;-57
2022/08/13 03:30:33;;;;;;;28.95;26.88;;;;;;;22.47;73.29;100517.97;4998633;28;102395;-57
2022/08/13 03:33:03;;;;;;;28.30;26.00;;;;;;;22.48;73.02;100522.34;4999314;28;102491;-57
2022/08/13 03:35:31;;;;;;;29.38;27.20;;;;;;;22.47;73.16;100520.72;4999298;28;103647;-57
2022/08/13 03:37:58;;;;;;;26.00;24.07;;;;;;;22.48;73.18;100518.75;4999170;28;104379;-57
2022/08/13 03:41:11;;;;;;;27.60;25.50;;;;;;;22.48;73.13;100518.75;4998969;28;102036;-57
2022/08/13 03:43:13;;;;;;;25.05;22.95;;;;;;;22.47;73.17;100522.69;4992199;28;102117;-57
2022/08/13 03:45:40;;;;;;;27.70;25.52;;;;;;;22.48;73.24;100518.75;5000021;28;102252;-57
2022/08/13 03:48:07;;;;;;;30.98;28.70;;;;;;;22.48;73.12;100522.34;4999053;28;104028;-57
2022/08/13 03:50:35;;;;;;;26.23;24.20;;;;;;;22.47;73.34;100525.47;4999210;28;102581;-57
2022/08/13 03:53:03;;;;;;;25.45;23.38;;;;;;;22.48;73.24;100524.31;4997901;28;102237;-57
2022/08/13 03:55:30;;;;;;;28.25;26.05;;;;;;;22.48;73.19;100525.09;5000181;28;102314;-57
2022/08/13 03:57:58;;;;;;;28.70;26.52;;;;;;;22.48;73.13;100524.31;4997669;28;103945;-57
2022/08/13 04:00:28;;;;;;;28.10;25.73;;;;;;;22.47;73.22;100529.03;4999383;28;102293;-57
2022/08/13 04:02:55;;;;;;;26.60;24.55;;;;;;;22.47;73.38;100529.03;4998192;28;102044;-57
2022/08/13 04:05:22;;;;;;;27.75;25.75;;;;;;;22.47;73.29;100533.78;5000631;28;102607;-57
2022/08/13 04:07:51;;;;;;;30.27;28.13;;;;;;;22.48;73.41;100538.16;4997341;28;103989;-57
2022/08/13 04:10:19;;;;;;;27.52;25.52;;;;;;;22.49;73.25;100539.78;4979613;28;102357;-57
2022/08/13 04:12:46;;;;;;;28.70;26.50;;;;;;;22.47;73.23;100533.78;4986609;28;103356;-57
2022/08/13 04:15:13;;;;;;;26.95;24.85;;;;;;;22.48;73.26;100532.63;4999914;28;102295;-57
2022/08/13 04:17:40;;;;;;;29.05;26.88;;;;;;;22.48;73.20;100529.84;4996872;28;104064;-57
2022/08/13 04:20:09;;;;;;;27.27;25.13;;;;;;;22.49;73.27;100528.69;4990202;28;102087;-57
2022/08/13 04:22:37;;;;;;;28.15;26.15;;;;;;;22.47;73.61;100525.47;4994604;28;102329;-57
2022/08/13 04:25:05;;;;;;;28.30;26.33;;;;;;;22.48;73.43;100529.84;4981175;28;102285;-57
2022/08/13 04:27:34;;;;;;;28.48;26.05;;;;;;;22.48;73.41;100524.31;4990162;28;104029;-57
2022/08/13 04:30:03;;;;;;;29.73;27.43;;;;;;;22.47;73.30;100525.47;4999783;28;102380;-57
2022/08/13 04:32:40;;;;;;;27.80;25.67;;;;;;;22.48;73.43;100530.66;4998621;28;101925;-54
2022/08/13 04:35:07;;;;;;;28.60;26.48;;;;;;;22.48;73.37;100529.84;5000053;28;102150;-56
2022/08/13 04:37:36;;;;;;;30.30;28.02;;;;;;;22.48;73.31;100524.31;4997867;28;103929;-56
2022/08/13 04:40:06;;;;;;;32.47;29.80;;;;;;;22.48;73.49;100536.19;4997590;28;102356;-56
2022/08/13 04:42:47;;;;;;;30.95;28.58;;;;;;;22.48;73.48;100518.75;4996479;28;102141;-57
2022/08/13 04:45:14;;;;;;;29.58;27.13;;;;;;;22.48;73.33;100532.63;4979716;28;102171;-56
2022/08/13 04:47:42;;;;;;;29.92;27.73;;;;;;;22.48;73.44;100530.66;4985863;28;104062;-57
2022/08/13 04:50:10;;;;;;;32.13;29.40;;;;;;;22.49;73.40;100542.53;4993951;28;102188;-57
2022/08/13 04:52:37;;;;;;;31.00;28.50;;;;;;;22.49;73.25;100542.53;4995903;28;102409;-57
2022/08/13 04:55:06;;;;;;;31.73;29.35;;;;;;;22.48;73.34;100547.28;4993092;28;102351;-57
2022/08/13 04:57:34;;;;;;;33.38;30.85;;;;;;;22.50;73.41;100549.69;4996808;28;104210;-57
2022/08/13 05:00:04;;;;;;;31.77;29.25;;;;;;;22.49;73.25;100546.13;4995183;28;102192;-57
2022/08/13 05:02:31;;;;;;;33.88;31.42;;;;;;;22.49;73.35;100553.63;4998045;28;103309;-57
2022/08/13 05:04:58;;;;;;;34.53;31.90;;;;;;;22.49;73.38;100545.31;4998194;28;102502;-57
2022/08/13 05:07:25;;;;;;;32.08;29.60;;;;;;;22.49;73.33;100553.63;4996569;28;103809;-57
2022/08/13 05:09:51;;;;;;;33.22;30.52;;;;;;;22.49;73.53;100554.44;4998759;28;102449;-57
2022/08/13 05:12:19;;;;;;;32.80;30.20;;;;;;;22.48;73.40;100550.06;4997515;28;102153;-57
2022/08/13 05:14:46;;;;;;;31.03;28.60;;;;;;;22.49;73.52;100550.88;4994627;28;102389;-57
2022/08/13 05:17:12;;;;;;;31.95;29.42;;;;;;;22.49;73.38;100553.63;4997545;28;103744;-57
2022/08/13 05:19:39;;;;;;;34.67;31.90;;;;;;;22.49;73.45;100548.09;4997387;28;102175;-57
2022/08/13 05:22:07;;;;;;;33.53;30.63;;;;;;;22.49;73.37;100539.78;4997966;28;102396;-57
2022/08/13 05:24:37;;;;;;;33.20;30.67;;;;;;;22.50;73.31;100544.97;4998055;28;102182;-57
2022/08/13 05:27:04;;;;;;;32.03;29.52;;;;;;;22.50;73.40;100536.66;4997182;28;103883;-57
2022/08/13 05:29:32;;;;;;;34.15;31.42;;;;;;;22.51;73.31;100535.50;4997200;28;102775;-57
2022/08/13 05:31:59;;;;;;;32.58;29.92;;;;;;;22.52;73.25;100533.53;4996282;28;102402;-57
2022/08/13 05:34:28;;;;;;;29.70;27.20;;;;;;;22.54;73.26;100539.53;4997917;28;102637;-57
2022/08/13 05:36:55;;;;;;;35.08;32.22;;;;;;;22.55;73.09;100541.94;4997091;28;103921;-57
2022/08/13 05:39:21;;;;;;;32.80;30.30;;;;;;;22.56;73.15;100542.72;4996888;28;102114;-57
2022/08/13 05:41:48;;;;;;;35.08;32.38;;;;;;;22.58;73.13;100545.16;4997702;28;103154;-57
2022/08/13 05:44:15;;;;;;;34.50;31.65;;;;;;;22.58;73.30;100540.41;4998222;28;102035;-57
2022/08/13 05:46:43;;;;;;;33.53;30.90;;;;;;;22.59;73.28;100542.03;4997152;28;103789;-57
2022/08/13 05:49:09;;;;;;;32.90;30.30;;;;;;;22.59;73.05;100541.22;4994084;28;102038;-57
2022/08/13 05:51:36;;;;;;;33.85;31.25;;;;;;;22.59;73.19;100544.78;4997161;28;101941;-57
2022/08/13 05:54:02;;;;;;;37.10;33.58;;;;;;;22.59;73.26;100539.25;4987675;28;103275;-56
2022/08/13 05:56:36;;;;;;;37.33;34.33;;;;;;;22.62;73.34;100549.63;4977203;28;103861;-57
2022/08/13 05:59:04;;;;;;;37.97;34.55;;;;;;;22.62;73.19;100546.84;4979092;28;102682;-57
2022/08/13 06:04:19;;;;;;;35.45;32.53;;;;;;;22.63;73.25;100550.44;4998795;28;102437;-57
2022/08/13 06:06:47;;;;;;;36.08;32.97;;;;;;;22.62;73.32;100546.84;4996676;28;108518;-55
2022/08/13 06:09:13;;;;;;;34.22;31.42;;;;;;;22.62;72.83;100541.31;4995927;28;102635;-56
2022/08/13 06:11:43;;;;;;;36.03;33.17;;;;;;;22.62;72.98;100541.31;4992907;28;102238;-56
2022/08/13 06:14:17;;;;;;;39.80;36.80;;;;;;;22.63;73.27;100537.38;4997063;28;102174;-56
2022/08/13 06:16:44;;;;;;;36.13;33.10;;;;;;;22.67;73.74;100548.56;4980079;28;103987;-57
2022/08/13 06:19:14;;;;;;;37.58;34.63;;;;;;;22.68;73.72;100552.94;4991206;28;102305;-57
2022/08/13 06:21:43;;;;;;;38.03;34.97;;;;;;;22.69;73.56;100552.59;4994749;28;102423;-57
2022/08/13 06:24:12;;;;;;;37.40;34.22;;;;;;;22.70;73.63;100556.97;4994300;28;104926;-57
2022/08/13 06:26:38;;;;;;;;;;;;;;;22.71;73.22;100561.34;4995969;28;103846;-56
2022/08/13 06:29:06;;;;;;;34.05;31.13;;;;;;;22.71;73.26;100566.88;4977430;28;102237;-57
2022/08/13 06:31:38;;;;;;;34.72;31.83;;;;;;;22.70;73.29;100562.50;4976915;28;102167;-57
2022/08/13 06:34:09;;;;;;;36.70;33.70;;;;;;;22.72;73.37;100567.69;4984650;28;102497;-57
2022/08/13 06:36:37;;;;;;;38.25;35.13;;;;;;;22.71;73.59;100566.88;4996416;28;103649;-57
2022/08/13 06:39:05;;;;;;;39.80;36.77;;;;;;;22.70;73.27;100570.84;4997272;28;102214;-57
2022/08/13 06:41:34;;;;;;;38.13;35.05;;;;;;;22.69;73.51;100573.97;4995387;28;102238;-57
2022/08/13 06:44:01;;;;;;;37.85;34.95;;;;;;;22.69;73.40;100569.22;4997774;28;102231;-57
2022/08/13 06:46:29;;;;;;;37.38;34.42;;;;;;;22.70;73.42;100570.03;4995123;28;104192;-57
2022/08/13 06:48:58;;;;;;;40.45;37.10;;;;;;;22.70;73.56;100562.50;4985073;28;102448;-57
2022/08/13 06:51:25;;;;;;;40.28;36.95;;;;;;;22.71;73.61;100560.53;4976211;28;102035;-57
2022/08/13 06:53:54;;;;;;;40.05;36.85;;;;;;;22.70;73.29;100565.28;4992216;28;102540;-57
2022/08/13 06:56:24;;;;;;;40.47;37.17;;;;;;;22.71;73.46;100560.53;4994511;28;104040;-57
2022/08/13 06:58:52;;;;;;;44.53;41.03;;;;;;;22.72;73.45;100567.69;4996136;28;101875;-57
2022/08/13 07:01:22;;;;;;;41.17;37.83;;;;;;;22.73;73.29;100564.56;4984649;28;102122;-57
2022/08/13 07:03:49;;;;;;;41.63;38.30;;;;;;;22.74;73.26;100566.19;4996826;28;102338;-57
2022/08/13 07:06:17;;;;;;;41.15;37.88;;;;;;;22.76;73.23;100568.63;4988729;28;103974;-57
2022/08/13 07:08:44;;;;;;;42.58;39.35;;;;;;;22.75;73.54;100556.69;4984961;28;102156;-57
2022/08/13 07:11:22;;;;;;;42.00;38.75;;;;;;;22.75;73.44;100576.09;4995410;28;102147;-57
2022/08/13 07:13:53;;;;;;;40.92;37.63;;;;;;;22.75;73.55;100578.88;4981142;28;101984;-57
2022/08/13 07:16:22;;;;;;;41.83;38.58;;;;;;;22.74;73.35;100570.94;4996023;28;105124;-57
2022/08/13 07:18:49;;;;;;;;;;;;;;;22.74;73.55;100571.72;4996995;28;102012;-57
2022/08/13 07:21:19;;;;;;;35.33;32.50;;;;;;;22.73;73.66;100564.56;4982493;28;102419;-57
2022/08/13 07:23:48;;;;;;;41.00;37.78;;;;;;;22.75;73.63;100553.91;4994105;28;102342;-57
2022/08/13 07:26:16;;;;;;;;;;;;;;;22.76;73.71;100566.63;4995353;28;104143;-57
2022/08/13 07:28:46;;;;;;;36.75;33.65;;;;;;;22.76;73.49;100569.41;4992981;28;102959;-57
2022/08/13 07:31:16;;;;;;;40.17;36.80;;;;;;;22.76;73.72;100561.09;4989851;28;102298;-58
2022/08/13 07:33:48;;;;;;;38.90;35.83;;;;;;;22.76;73.69;100558.31;4994125;28;102771;-57
2022/08/13 07:36:15;;;;;;;43.45;40.03;;;;;;;22.76;73.64;100569.41;4994788;28;107944;-56
2022/08/13 07:38:42;;;;;;;40.67;37.45;;;;;;;22.77;73.58;100570.22;4996211;28;102330;-56
2022/08/13 07:41:12;;;;;;;38.35;35.22;;;;;;;22.77;73.57;100571.03;4995189;28;102224;-57
2022/08/13 07:43:43;;;;;;;42.83;39.58;;;;;;;22.77;73.77;100571.03;4996807;28;102095;-57
2022/08/13 07:46:12;;;;;;;43.63;40.03;;;;;;;22.76;73.83;100569.41;4995868;28;103929;-57
2022/08/13 07:48:42;;;;;;;43.90;40.60;;;;;;;22.76;73.69;100563.88;4986974;28;102061;-57
2022/08/13 07:51:19;;;;;;;42.22;38.88;;;;;;;22.77;73.70;100571.03;4975713;28;102312;-57
2022/08/13 07:53:46;;;;;;;44.92;41.35;;;;;;;22.76;73.67;100558.31;4983317;28;102310;-57
2022/08/13 07:56:18;;;;;;;41.55;38.40;;;;;;;22.77;73.82;100571.03;4995124;28;103916;-58
2022/08/13 07:58:45;;;;;;;45.78;42.35;;;;;;;22.78;73.79;100561.53;4996493;28;102210;-57
2022/08/13 08:01:12;;;;;;;42.60;39.33;;;;;;;22.79;73.91;100557.59;4995025;28;102031;-57
2022/08/13 08:03:45;;;;;;;43.88;40.30;;;;;;;22.79;73.90;100556.78;4996421;28;103896;-58
2022/08/13 08:06:14;;;;;;;45.58;42.10;;;;;;;22.82;73.66;100566.38;4994772;28;103840;-57
2022/08/13 08:08:42;;;;;;;41.67;38.38;;;;;;;22.82;73.92;100558.84;4995993;28;102258;-57
2022/08/13 08:11:09;;;;;;;43.95;40.65;;;;;;;22.82;73.69;100555.25;4995037;28;102206;-58
2022/08/13 08:13:39;;;;;;;45.70;42.13;;;;;;;22.86;73.51;100558.94;4996641;28;102239;-57
2022/08/13 08:16:06;;;;;;;44.00;40.70;;;;;;;22.86;73.87;100567.25;4998001;28;103669;-57
2022/08/13 08:18:33;;;;;;;44.80;41.38;;;;;;;22.85;73.72;100560.91;4999039;28;102355;-57
2022/08/13 08:21:07;;;;;;;44.45;41.15;;;;;;;22.87;73.88;100561.38;4982874;28;102111;-58
2022/08/13 08:23:35;;;;;;;42.20;39.03;;;;;;;22.89;73.49;100561.00;4980114;28;102314;-58
2022/08/13 08:26:02;;;;;;;41.75;38.45;;;;;;;22.92;73.70;100565.84;4978444;28;103874;-57
2022/08/13 08:28:30;;;;;;;42.83;39.53;;;;;;;22.94;73.87;100560.78;4987707;28;102160;-58
2022/08/13 08:30:56;;;;;;;45.87;42.50;;;;;;;22.94;73.69;100558.00;4998454;28;102461;-57
2022/08/13 08:33:26;;;;;;;46.22;42.75;;;;;;;22.95;73.75;100549.28;4999929;28;102255;-58
2022/08/13 08:35:53;;;;;;;46.22;42.78;;;;;;;22.94;73.75;100544.91;4997935;28;104098;-57
2022/08/13 08:43:56;;;;;;;;;;;;;;;22.93;73.70;100548.84;4999653;28;102170;-56
2022/08/13 08:46:24;;;;;;;36.28;33.20;;;;;;;22.99;73.45;100543.84;4997383;28;104012;-57
2022/08/13 08:48:54;;;;;;;48.10;44.45;;;;;;;23.00;73.70;100542.66;4991263;28;102398;-57
2022/08/13 08:51:21;;;;;;;42.78;39.55;;;;;;;23.02;73.47;100537.56;4996187;28;102169;-57
2022/08/13 08:53:50;;;;;;;44.70;41.38;;;;;;;23.06;73.55;100532.09;4997626;28;102575;-58
2022/08/13 08:56:20;;;;;;;;;;;;;;;23.03;73.25;100533.63;4994954;28;104002;-58
2022/08/13 08:58:49;;;;;;;37.25;34.10;;;;;;;23.00;73.30;100526.00;4996611;28;102420;-58
2022/08/13 09:01:21;;;;;;;44.22;40.85;;;;;;;23.01;73.44;100535.97;4994825;28;101979;-58
2022/08/13 09:03:48;;;;;;;46.35;42.75;;;;;;;23.01;73.43;100530.41;4990357;28;102334;-57
2022/08/13 09:06:15;;;;;;;46.35;43.08;;;;;;;22.99;73.52;100518.84;4992847;28;103834;-58
2022/08/13 09:08:42;;;;;;;45.55;41.88;;;;;;;23.01;73.48;100535.97;4978771;28;102430;-57
2022/08/13 09:11:11;;;;;;;46.30;42.95;;;;;;;23.04;73.33;100518.56;4980894;28;102497;-57
2022/08/13 09:13:38;;;;;;;47.65;44.10;;;;;;;23.04;73.43;100524.13;4984962;28;102325;-57
2022/08/13 09:16:05;;;;;;;45.65;42.28;;;;;;;23.04;73.41;100529.66;4977185;28;103901;-57
2022/08/13 09:18:32;;;;;;;47.90;44.28;;;;;;;23.03;72.96;100528.06;4979483;28;102463;-57
2022/08/13 09:21:00;;;;;;;43.25;39.78;;;;;;;23.02;73.10;100521.72;4987428;28;102387;-58
2022/08/13 09:23:32;;;;;;;49.25;45.70;;;;;;;23.02;73.15;100515.38;4999183;28;102780;-57
2022/08/13 09:25:59;;;;;;;47.95;44.15;;;;;;;23.02;73.17;100518.13;4996662;28;103841;-57
2022/08/13 09:28:27;;;;;;;49.13;45.63;;;;;;;23.02;73.39;100521.72;4998419;28;102012;-58
2022/08/13 09:30:54;;;;;;;46.80;43.37;;;;;;;23.04;73.02;100529.66;4996780;28;102390;-58
2022/08/13 09:33:23;;;;;;;49.17;45.58;;;;;;;23.03;73.02;100519.75;4997334;28;102148;-58
2022/08/13 09:35:53;;;;;;;49.05;45.13;;;;;;;23.05;73.16;100528.53;4993235;28;104131;-57
2022/08/13 09:38:21;;;;;;;45.22;41.75;;;;;;;23.08;73.16;100529.75;4978354;28;102340;-57
2022/08/13 09:40:54;;;;;;;48.72;45.10;;;;;;;23.07;73.17;100528.94;4977934;28;102347;-57
2022/08/13 09:43:28;;;;;;;47.90;44.30;;;;;;;23.07;73.12;100530.94;4989893;28;101999;-57
2022/08/13 09:45:56;;;;;;;46.45;43.05;;;;;;;23.08;73.05;100525.03;4996287;28;103915;-58
2022/08/13 09:48:24;;;;;;;46.85;43.45;;;;;;;23.07;73.15;100523.41;4989753;28;102221;-57
2022/08/13 09:50:52;;;;;;;47.63;43.90;;;;;;;23.07;73.06;100522.59;4977645;28;102155;-58
2022/08/13 09:53:19;;;;;;;45.73;42.37;;;;;;;23.06;73.11;100527.34;4989862;28;102127;-57
2022/08/13 09:55:45;;;;;;;48.78;44.80;;;;;;;23.08;72.96;100530.59;4977504;28;103948;-56
2022/08/13 09:58:13;;;;;;;49.25;45.65;;;;;;;23.09;73.00;100521.09;4991163;28;102446;-56
2022/08/13 10:00:45;;;;;;;48.83;45.22;;;;;;;23.10;73.08;100527.44;4993686;28;102325;-57
2022/08/13 10:03:14;;;;;;;46.65;42.97;;;;;;;23.08;72.82;100530.59;4998031;28;102305;-56
2022/08/13 10:05:40;;;;;;;46.38;43.03;;;;;;;23.10;72.90;100521.88;4997112;28;103964;-56
2022/08/13 10:08:14;;;;;;;47.38;43.88;;;;;;;23.10;72.89;100527.44;4997492;28;101934;-56
2022/08/13 10:10:42;;;;;;;47.90;44.45;;;;;;;23.12;72.73;100525.91;4996132;28;102214;-56
2022/08/13 10:13:09;;;;;;;48.40;44.70;;;;;;;23.11;72.76;100532.63;4984414;28;102273;-56
2022/08/13 10:15:35;;;;;;;45.28;41.92;;;;;;;23.11;72.88;100523.50;4978576;28;104063;-56
2022/08/13 10:18:02;;;;;;;49.72;46.13;;;;;;;23.09;72.75;100532.19;4997184;28;102282;-59
2022/08/13 10:20:33;;;;;;;50.67;47.00;;;;;;;23.10;72.63;100524.66;4993875;28;102131;-57
2022/08/13 10:23:01;;;;;;;47.28;43.90;;;;;;;23.09;72.82;100532.19;4997621;28;102296;-55
2022/08/13 10:25:29;;;;;;;49.53;45.88;;;;;;;23.09;72.87;100525.84;4994495;28;103941;-57
2022/08/13 10:27:57;;;;;;;45.20;41.77;;;;;;;23.07;72.64;100534.50;4984148;28;102808;-56
2022/08/13 10:30:26;;;;;;;47.30;43.80;;;;;;;23.07;72.96;100534.50;4985149;28;102297;-57
2022/08/13 10:32:56;;;;;;;50.75;47.22;;;;;;;23.06;72.82;100532.09;4997845;28;102123;-56
2022/08/13 10:35:25;;;;;;;49.58;46.00;;;;;;;23.06;72.68;100527.34;4994446;28;104188;-57
2022/08/13 10:37:54;;;;;;;;;;;;;;;23.08;72.45;100529.75;4995691;28;102141;-56
2022/08/13 10:40:20;;;;;;;;;;;;;;;23.09;72.54;100531.38;4996765;28;102422;-57
2022/08/13 10:42:47;;;;;;;36.28;33.40;;;;;;;23.07;72.57;100528.94;4997687;28;102174;-57
2022/08/13 10:45:14;;;;;;;42.78;39.65;;;;;;;23.08;72.54;100525.03;4992640;28;104111;-57
2022/08/13 10:47:46;;;;;;;44.50;41.05;;;;;;;23.06;72.58;100526.56;4994841;28;102066;-56
2022/08/13 10:50:14;;;;;;;48.00;44.58;;;;;;;23.06;72.51;100537.66;4976778;28;102134;-57
2022/08/13 10:52:42;;;;;;;46.17;42.77;;;;;;;23.05;72.46;100520.19;4997597;28;102225;-57
2022/08/13 10:55:13;;;;;;;48.28;44.75;;;;;;;23.03;72.94;100522.50;4987569;28;103931;-57
2022/08/13 10:57:43;;;;;;;48.65;44.92;;;;;;;23.01;72.62;100524.88;4989693;28;102184;-57
2022/08/13 11:00:12;;;;;;;48.25;44.60;;;;;;;23.02;72.47;100520.91;4992670;28;102308;-57
2022/08/13 11:02:38;;;;;;;;;;;;;;;23.02;72.69;100520.91;4980771;28;102768;-57
2022/08/13 11:05:06;;;;;;;40.53;37.28;;;;;;;23.02;72.52;100524.50;4994530;28;104158;-57
2022/08/13 11:07:33;;;;;;;46.13;42.63;;;;;;;23.02;72.58;100518.13;4988641;28;102234;-57
2022/08/13 11:09:59;;;;;;;45.78;42.20;;;;;;;23.02;72.38;100521.72;4989981;28;102333;-57
2022/08/13 11:12:27;;;;;;;48.03;44.63;;;;;;;23.01;72.49;100517.34;4996984;28;102589;-57
2022/08/13 11:14:54;;;;;;;48.65;45.08;;;;;;;23.01;72.19;100511.00;4995331;28;103849;-57
2022/08/13 11:17:22;;;;;;;48.28;44.53;;;;;;;23.00;72.31;100506.59;4996508;28;102397;-57
2022/08/13 11:19:49;;;;;;;48.22;44.78;;;;;;;23.00;72.31;100517.69;4995609;28;102451;-57
2022/08/13 11:22:15;;;;;;;45.90;42.60;;;;;;;23.03;72.10;100511.41;4996540;28;102157;-57
2022/08/13 11:24:42;;;;;;;48.17;44.45;;;;;;;23.01;72.10;100508.22;4995683;28;104060;-57
2022/08/13 11:27:09;;;;;;;47.25;43.83;;;;;;;23.00;72.06;100517.69;4995270;28;102009;-57
2022/08/13 11:29:37;;;;;;;46.92;43.17;;;;;;;22.99;72.22;100511.34;4996218;28;101927;-57